This is the latest recevied weather packets stored in our database for station/object DL1SEW-6. If no packets are shown the sender has not sent any weather packets the latest 1 day(s).
| Time | Temp. | Humidity | Pressure | Rain* | Wind** | Luminosity | Snow |
|---|---|---|---|---|---|---|---|
| 1778080207 | 11.67° C | 87% | 1006.4 hPa | 0.51 mm | - | 60 W/m² | - |
| 1778073903 | 12.78° C | 82% | 1006 hPa | 0.51 mm | - | 130 W/m² | - |
| 1778070302 | 13.89° C | 78% | 1005.5 hPa | 0.25 mm | - | 178 W/m² | - |
| 1778069402 | 13.89° C | 77% | 1005.5 hPa | 0.51 mm | - | 197 W/m² | - |
| 1778068507 | 13.33° C | 84% | 1005.4 hPa | 0.51 mm | - | 569 W/m² | - |
| 1778063106 | 16.67° C | 61% | 1006 hPa | 0 mm | - | 139 W/m² | - |
| 1778059506 | 16.67° C | 60% | 1006.1 hPa | 0 mm | - | 388 W/m² | - |
| 1778058606 | 16.67° C | 62% | 1006.2 hPa | 0 mm | - | 431 W/m² | - |
| 1778055905 | 15° C | 68% | 1005.9 hPa | 0 mm | - | 309 W/m² | - |
| 1778054104 | 14.44° C | 71% | 1005.8 hPa | 0 mm | - | 383 W/m² | - |
| 1778053204 | 13.89° C | 73% | 1005.9 hPa | 0 mm | - | 799 W/m² | - |
| 1778048704 | 9.44° C | 88% | 1005.3 hPa | 0 mm | - | 179 W/m² | - |
| 1778047803 | 8.89° C | 87% | 1005.2 hPa | 0 mm | - | 134 W/m² | - |
| 1778046904 | 8.89° C | 87% | 1005.4 hPa | 0 mm | - | 117 W/m² | - |
| 1778045107 | 8.33° C | 86% | 1005.5 hPa | 0 mm | - | 62 W/m² | - |
| 1778044208 | 8.33° C | 85% | 1005.6 hPa | 0 mm | - | 58 W/m² | - |
| 1778043309 | 8.89° C | 84% | 1005.6 hPa | 0 mm | - | 34 W/m² | - |
| 1778041508 | 8.89° C | 83% | 1005.6 hPa | 0 mm | - | 17 W/m² | - |
| 1778039706 | 8.89° C | 84% | 1005.6 hPa | 0 mm | - | 0 W/m² | - |
| 1778038806 | 8.89° C | 84% | 1005.6 hPa | 0 mm | - | 0 W/m² | - |
| 1778037008 | 8.33° C | 87% | 1006 hPa | 0 mm | - | 0 W/m² | - |
| 1778034307 | 7.78° C | 87% | 1006 hPa | 0 mm | - | 0 W/m² | - |
| 1778033405 | 7.78° C | 87% | 1006 hPa | 0 mm | - | 0 W/m² | - |
| 1778032505 | 7.78° C | 87% | 1006.2 hPa | 0 mm | - | 0 W/m² | - |
| 1778030705 | 8.33° C | 86% | 1006.9 hPa | 0 mm | - | 0 W/m² | - |
* Rain latest hour (hover to see other rain measurements)
** Current wind speed in m/s (hover to see current wind gust speed)